createdAt,value
2019-05-16T00:02:19.359Z,6.20
2019-05-16T00:09:05.471Z,6.10
2019-05-16T00:15:50.507Z,6.10
2019-05-16T00:22:35.457Z,6.10
2019-05-16T00:29:20.306Z,6.00
2019-05-16T00:36:06.035Z,5.90
2019-05-16T00:42:51.767Z,5.80
2019-05-16T00:49:38.525Z,5.70
2019-05-16T00:56:23.549Z,5.60
2019-05-16T01:03:08.999Z,5.50
2019-05-16T01:09:53.863Z,5.40
2019-05-16T01:16:39.206Z,5.30
2019-05-16T01:23:24.192Z,5.20
2019-05-16T01:30:10.023Z,5.10
2019-05-16T01:36:54.884Z,5.10
2019-05-16T01:43:39.806Z,5.20
2019-05-16T01:50:24.750Z,5.20
2019-05-16T01:57:09.751Z,5.10
2019-05-16T02:03:54.608Z,5.00
2019-05-16T02:10:40.036Z,5.00
2019-05-16T02:17:25.341Z,4.90
2019-05-16T02:24:10.279Z,4.90
2019-05-16T02:30:56.977Z,4.70
2019-05-16T02:37:43.495Z,4.60
2019-05-16T02:44:31.485Z,4.60
2019-05-16T02:51:15.013Z,4.50
2019-05-16T02:58:00.767Z,4.60
2019-05-16T03:04:46.325Z,4.60
2019-05-16T03:11:31.562Z,4.80
2019-05-16T03:18:17.551Z,4.90
2019-05-16T03:25:02.480Z,4.80
2019-05-16T03:31:47.391Z,4.90
2019-05-16T03:38:32.237Z,4.90
2019-05-16T03:45:17.158Z,4.80
2019-05-16T03:52:02.373Z,4.90
2019-05-16T03:58:50.762Z,5.10
2019-05-16T04:05:33.838Z,5.10
2019-05-16T04:12:21.491Z,5.50
2019-05-16T04:19:06.091Z,5.80
2019-05-16T04:25:52.372Z,6.00
2019-05-16T04:32:37.726Z,6.40
2019-05-16T04:39:22.639Z,6.70
2019-05-16T04:46:07.554Z,7.10
2019-05-16T04:52:52.588Z,7.50
2019-05-16T04:59:37.600Z,7.80
2019-05-16T05:06:22.516Z,7.90
2019-05-16T05:13:10.778Z,8.00
2019-05-16T05:19:54.383Z,8.10
2019-05-16T05:26:41.523Z,8.10
2019-05-16T05:33:25.986Z,8.30
2019-05-16T05:40:11.363Z,8.70
2019-05-16T05:46:56.211Z,8.90
2019-05-16T05:53:41.064Z,9.20
2019-05-16T06:00:26.335Z,9.30
2019-05-16T06:07:11.183Z,9.50
2019-05-16T06:13:56.100Z,9.90
2019-05-16T06:20:41.027Z,10.20
2019-05-16T06:27:25.891Z,10.40
2019-05-16T06:34:15.056Z,10.50
2019-05-16T06:41:00.306Z,11.10
2019-05-16T06:47:45.195Z,11.40
2019-05-16T06:54:30.082Z,12.00
2019-05-16T07:01:14.990Z,11.70
2019-05-16T07:07:59.883Z,11.90
2019-05-16T07:14:44.887Z,12.20
2019-05-16T07:21:31.264Z,12.70
2019-05-16T07:28:16.555Z,12.50
2019-05-16T07:35:01.418Z,12.70
2019-05-16T07:41:47.532Z,13.20
2019-05-16T07:48:32.462Z,13.80
2019-05-16T07:55:17.489Z,14.20
2019-05-16T08:02:02.420Z,14.40
2019-05-16T08:08:47.539Z,14.70
2019-05-16T08:15:32.470Z,14.80
2019-05-16T08:22:17.589Z,15.60
2019-05-16T08:29:02.649Z,15.00
2019-05-16T08:35:47.552Z,15.10
2019-05-16T08:42:32.708Z,16.00
2019-05-16T08:49:21.887Z,16.40
2019-05-16T08:56:05.259Z,16.90
2019-05-16T09:02:52.409Z,16.70
2019-05-16T09:09:44.071Z,17.50
2019-05-16T09:16:23.395Z,18.70
2019-05-16T09:23:08.336Z,18.70
2019-05-16T09:29:53.216Z,18.80
2019-05-16T09:36:38.148Z,19.50
2019-05-16T09:43:23.147Z,21.40
2019-05-16T09:50:10.260Z,23.80
2019-05-16T09:56:57.176Z,24.50
2019-05-16T10:03:41.938Z,21.90
2019-05-16T10:10:27.044Z,22.60
2019-05-16T10:17:12.148Z,21.70
2019-05-16T10:23:57.235Z,20.60
2019-05-16T10:30:42.171Z,19.90
2019-05-16T10:37:27.083Z,18.80
2019-05-16T10:44:11.977Z,19.00
2019-05-16T10:50:57.861Z,19.40
2019-05-16T10:57:44.226Z,19.50
2019-05-16T11:04:49.653Z,19.30
2019-05-16T11:11:19.863Z,20.00
2019-05-16T11:18:06.866Z,19.60
2019-05-16T11:24:53.018Z,19.70
2019-05-16T11:31:38.392Z,19.20
2019-05-16T11:38:23.596Z,17.90
2019-05-16T11:45:10.413Z,17.30
2019-05-16T11:51:57.742Z,17.80
2019-05-16T11:58:42.653Z,17.10
2019-05-16T12:05:29.184Z,16.90
2019-05-16T12:12:16.414Z,17.40
2019-05-16T12:19:00.806Z,17.90
2019-05-16T12:25:47.617Z,18.60
2019-05-16T12:32:32.548Z,19.60
2019-05-16T12:39:17.495Z,19.30
2019-05-16T12:46:02.446Z,20.20
2019-05-16T12:52:47.592Z,20.20
2019-05-16T12:59:32.695Z,20.00
2019-05-16T13:06:17.632Z,20.30
2019-05-16T13:13:02.525Z,20.20
2019-05-16T13:19:48.212Z,20.10
2019-05-16T13:26:33.496Z,19.90
2019-05-16T13:33:18.801Z,19.90
2019-05-16T13:40:08.878Z,19.80
2019-05-16T13:46:56.804Z,19.20
2019-05-16T13:53:47.128Z,18.90
2019-05-16T14:00:31.790Z,20.50
2019-05-16T14:07:17.255Z,20.10
2019-05-16T14:14:04.843Z,20.80
2019-05-16T14:20:48.871Z,19.80
2019-05-16T14:27:34.119Z,19.40
2019-05-16T14:34:19.046Z,19.10
2019-05-16T14:41:04.898Z,19.20
2019-05-16T14:47:49.929Z,19.00
2019-05-16T14:54:37.537Z,18.70
2019-05-16T15:01:21.415Z,18.50
2019-05-16T15:08:08.235Z,18.20
2019-05-16T15:14:52.974Z,18.20
2019-05-16T15:21:38.006Z,18.30
2019-05-16T15:28:24.666Z,17.90
2019-05-16T15:35:10.089Z,18.00
2019-05-16T15:41:56.577Z,18.40
2019-05-16T15:48:41.962Z,18.50
2019-05-16T15:55:27.223Z,17.90
2019-05-16T16:02:12.238Z,18.10
2019-05-16T16:08:57.406Z,18.00
2019-05-16T16:15:50.358Z,17.90
2019-05-16T16:22:29.049Z,18.20
2019-05-16T16:29:16.696Z,18.00
2019-05-16T16:36:00.695Z,17.20
2019-05-16T16:42:47.525Z,16.90
2019-05-16T16:49:32.667Z,16.60
2019-05-16T16:56:18.252Z,16.30
2019-05-16T17:03:09.280Z,16.20
2019-05-16T17:09:49.824Z,16.00
2019-05-16T17:16:37.169Z,16.10
2019-05-16T17:23:21.793Z,15.90
2019-05-16T17:30:16.937Z,16.00
2019-05-16T17:37:02.737Z,16.00
2019-05-16T17:43:48.283Z,15.70
2019-05-16T17:50:33.349Z,15.70
2019-05-16T17:57:18.477Z,15.50
2019-05-16T18:04:06.319Z,15.50
2019-05-16T18:10:50.550Z,15.30
2019-05-16T18:17:36.138Z,15.30
2019-05-16T18:24:21.410Z,15.10
2019-05-16T18:31:06.416Z,15.10
2019-05-16T18:37:52.426Z,15.00
2019-05-16T18:44:37.490Z,14.90
2019-05-16T18:51:22.593Z,14.80
2019-05-16T18:58:08.638Z,14.70
2019-05-16T19:04:54.352Z,14.70
2019-05-16T19:11:40.683Z,14.70
2019-05-16T19:18:26.327Z,14.60
2019-05-16T19:25:11.694Z,14.50
2019-05-16T19:31:57.171Z,14.50
2019-05-16T19:38:42.525Z,14.50
2019-05-16T19:45:27.662Z,14.40
2019-05-16T19:52:12.633Z,14.40
2019-05-16T19:58:57.720Z,14.30
2019-05-16T20:05:44.492Z,14.20
2019-05-16T20:12:29.600Z,14.10
2019-05-16T20:19:14.617Z,14.00
2019-05-16T20:25:59.618Z,13.90
2019-05-16T20:32:44.607Z,13.50
2019-05-16T20:39:29.826Z,13.00
2019-05-16T20:46:16.930Z,12.50
2019-05-16T20:53:01.495Z,12.10
2019-05-16T20:59:49.066Z,11.70
2019-05-16T21:06:33.222Z,11.60
2019-05-16T21:13:18.247Z,11.50
2019-05-16T21:20:03.843Z,11.30
2019-05-16T21:26:48.792Z,11.20
2019-05-16T21:33:36.233Z,11.10
2019-05-16T21:40:20.694Z,10.80
2019-05-16T21:47:05.723Z,10.70
2019-05-16T21:53:50.667Z,10.60
2019-05-16T22:00:47.216Z,10.30
2019-05-16T22:07:33.599Z,10.20
2019-05-16T22:14:22.186Z,10.00
2019-05-16T22:21:07.540Z,10.00
2019-05-16T22:27:52.955Z,9.70
2019-05-16T22:34:37.939Z,9.50
2019-05-16T22:41:23.174Z,9.40
2019-05-16T22:48:08.083Z,9.20
2019-05-16T22:54:52.999Z,9.10
2019-05-16T23:01:37.960Z,9.00
2019-05-16T23:08:22.825Z,8.90
2019-05-16T23:15:08.162Z,8.80
2019-05-16T23:21:56.828Z,8.80
2019-05-16T23:28:42.118Z,8.70
2019-05-16T23:35:27.040Z,8.60
2019-05-16T23:42:12.138Z,8.50
2019-05-16T23:48:57.016Z,8.50
2019-05-16T23:55:44.230Z,8.40
